Millersville, MO (63766)

1:52 PM CDT on September 01, 2015 (GMT -0500)
Northwest Jackson | | Change Station
CLOSE
Current Station
Personal Weather Station
Location: Jackson, MO
Elevation: 465 ft
Nearby Weather Stations

Elev 465 ft 37.39 °N, 89.68 °W | Updated 4 seconds ago

Clear
Clear
90.0 °F
Feels Like 88 °F
N
3.5
Wind Variable Wind from ESE
Gusts 3.5 mph

Today
High -- | Low -- °F
--% Chance of Precip.
Yesterday
High -- | Low -- °F
Precip. -- in
6:29 AM 7:28 PM
Waning Gibbous, 87% visible
Pressure 30.09 in
Visibility 10.0 miles
Clouds Clear
Heat Index 88 °F
Dew Point 53 °F
Humidity 29%
Rainfall 0.00 in
Snow Depth Not available.
UV 10 out of 12
Pollen 10.50 out of 12
Air Quality Not available.
Flu Activity Not available.
METAR KCGI 011753Z 24003KT 10SM CLR 30/21 A3010 RMK AO2 SLP190 6//// T03000206 10306 20189
Pressure 30.09 in
Visibility 10.0 miles
Clouds Clear
Heat Index 88 °F
Dew Point 53 °F
Humidity 29%
Rainfall 0.00 in
Snow Depth Not available.
UV 10 out of 12
Pollen 10.50 out of 12
Air Quality Not available.
Flu Activity Not available.
METAR KCGI 011753Z 24003KT 10SM CLR 30/21 A3010 RMK AO2 SLP190 6//// T03000206 10306 20189

10-Day Weather Forecast

×

Almanac

Astronomy

Sep. 01, 2015 Rise Set
Actual Time
Civil Twilight
Nautical Twilight
Astronomical Twilight
Moon
Length of Visible Light
Length of Day
Tomorrow will be .
, % of the Moon is Illuminated

Today's Extremes

State Highs State Lows

Community

WunderPhotos

Upload Photos

1,851,593 photos uploaded!

WunderBlogs® & News

Nearby

Air Quality

  Air Quality AQ Index Pollutant
Not available.

Snow Depth

Station Depth Elevation

Earthquake Activity

City Distance Mag. Time & Date
Minimum magnitude displayed is 2.5.

Coastal Water Temperatures

Place Temperature

Stations

Nearby Weather Stations

Station Location Temp. Windchill Dew Point Humidity Wind Precip. Elev Updated Type